Time;durP1;ratioP1;P1;durP2;ratioP2;P2;SDS_P1;SDS_P2;PMS_P1;PMS_P2;Temp;Humidity;BMP_temperature;BMP_pressure;BME280_temperature;BME280_humidity;BME280_pressure;Samples;Min_cycle;Max_cycle;Signal;HPM_P1;HPM_P2
2023/08/06 00:02:30;;;;;;;15.70;10.13;;;18.50;99.90;;;;;;5110035;28;20663;-69
2023/08/06 00:05:18;;;;;;;15.07;9.97;;;18.50;99.90;;;;;;5111684;28;20582;-69
2023/08/06 00:08:05;;;;;;;16.33;10.97;;;18.50;99.90;;;;;;5110822;28;20234;-70
2023/08/06 00:10:54;;;;;;;14.87;10.40;;;18.50;99.90;;;;;;5090666;28;20552;-69
2023/08/06 00:13:41;;;;;;;14.60;10.60;;;18.50;99.90;;;;;;5090551;28;20204;-69
2023/08/06 00:16:28;;;;;;;16.77;11.00;;;18.50;99.90;;;;;;5090607;28;20662;-70
2023/08/06 00:19:15;;;;;;;18.27;11.17;;;18.40;99.90;;;;;;5090331;28;20207;-69
2023/08/06 00:22:03;;;;;;;19.80;11.10;;;18.40;99.90;;;;;;5106230;28;20211;-69
2023/08/06 00:24:50;;;;;;;16.53;9.97;;;18.40;99.90;;;;;;5096921;28;20199;-69
2023/08/06 00:27:39;;;;;;;12.10;8.83;;;18.40;99.90;;;;;;5110532;28;20202;-69
2023/08/06 00:30:26;;;;;;;13.23;8.97;;;18.30;99.90;;;;;;5110144;28;20249;-69
2023/08/06 00:33:14;;;;;;;10.50;7.40;;;18.30;99.90;;;;;;5111623;28;20195;-69
2023/08/06 00:36:01;;;;;;;12.30;8.03;;;18.30;99.90;;;;;;5110664;28;20771;-70
2023/08/06 00:38:48;;;;;;;9.37;6.73;;;18.30;99.90;;;;;;5110305;28;20578;-69
2023/08/06 00:41:36;;;;;;;6.17;5.03;;;18.30;99.90;;;;;;5111108;28;20213;-69
2023/08/06 00:44:25;;;;;;;9.40;6.30;;;18.30;99.90;;;;;;5110125;28;20704;-69
2023/08/06 00:47:12;;;;;;;9.27;5.60;;;18.30;99.90;;;;;;5111085;28;20195;-69
2023/08/06 00:49:59;;;;;;;8.90;5.97;;;18.20;99.90;;;;;;5111080;28;20199;-69
2023/08/06 00:52:46;;;;;;;9.07;7.10;;;18.20;99.90;;;;;;5110177;28;20207;-69
2023/08/06 00:55:34;;;;;;;10.20;6.93;;;18.20;99.90;;;;;;5110220;28;20547;-69
2023/08/06 00:58:21;;;;;;;15.63;8.07;;;18.20;99.90;;;;;;5110557;28;20657;-69
2023/08/06 01:01:10;;;;;;;13.97;9.07;;;18.20;99.90;;;;;;5093645;28;20236;-69
2023/08/06 01:03:57;;;;;;;15.07;9.40;;;18.30;99.90;;;;;;5089524;28;20223;-69
2023/08/06 01:06:47;;;;;;;15.20;9.53;;;18.20;99.90;;;;;;5089261;28;20566;-69
2023/08/06 01:09:39;;;;;;;12.70;9.30;;;18.30;99.90;;;;;;5090515;28;20207;-69
2023/08/06 01:12:30;;;;;;;12.07;9.60;;;18.20;99.90;;;;;;5090534;28;20197;-69
2023/08/06 01:15:20;;;;;;;25.20;11.83;;;18.20;99.90;;;;;;5092825;28;20196;-70
2023/08/06 01:18:09;;;;;;;14.63;8.80;;;18.30;99.90;;;;;;5094493;28;20682;-70
2023/08/06 01:20:57;;;;;;;11.60;8.70;;;18.30;99.90;;;;;;5093525;28;20716;-69
2023/08/06 01:23:45;;;;;;;17.40;8.70;;;18.30;99.90;;;;;;5093968;28;20196;-69
2023/08/06 01:26:36;;;;;;;23.80;9.03;;;18.20;99.90;;;;;;5092531;28;20204;-69
2023/08/06 01:29:25;;;;;;;14.17;8.60;;;18.20;99.90;;;;;;5092931;28;20569;-69
2023/08/06 01:32:13;;;;;;;12.73;9.00;;;18.20;99.90;;;;;;5093015;28;20195;-69
2023/08/06 01:35:01;;;;;;;17.33;9.43;;;18.20;99.90;;;;;;5094363;28;20207;-69
2023/08/06 01:37:49;;;;;;;15.40;11.43;;;18.20;99.90;;;;;;5093232;28;20200;-70
2023/08/06 01:40:37;;;;;;;17.13;10.40;;;18.20;99.90;;;;;;5094085;28;20196;-69
2023/08/06 01:43:24;;;;;;;17.37;12.20;;;18.20;99.90;;;;;;5093570;28;20203;-69
2023/08/06 01:46:11;;;;;;;20.20;13.63;;;18.20;99.90;;;;;;5093533;28;20204;-69
2023/08/06 01:48:59;;;;;;;21.50;14.60;;;18.30;99.90;;;;;;5092733;28;20207;-69
2023/08/06 01:51:46;;;;;;;28.27;15.47;;;18.30;99.90;;;;;;5093409;28;20233;-69
2023/08/06 01:54:34;;;;;;;24.83;15.00;;;18.30;99.90;;;;;;5093773;28;20654;-69
2023/08/06 01:57:22;;;;;;;24.63;15.53;;;18.30;99.90;;;;;;5093843;28;20196;-70
2023/08/06 02:00:10;;;;;;;29.90;15.80;;;18.30;99.90;;;;;;5101786;28;20227;-69
2023/08/06 02:02:57;;;;;;;49.27;16.60;;;18.40;99.90;;;;;;5113733;28;20199;-69
2023/08/06 02:05:45;;;;;;;360.73;19.83;;;18.40;99.90;;;;;;5112917;28;20202;-69
2023/08/06 02:08:32;;;;;;;215.77;17.70;;;18.40;99.90;;;;;;5113235;28;20191;-69
2023/08/06 02:11:21;;;;;;;134.50;16.53;;;18.30;99.90;;;;;;5112710;28;20202;-69
2023/08/06 02:14:08;;;;;;;137.23;17.27;;;18.30;99.90;;;;;;5113355;28;20199;-69
2023/08/06 02:16:56;;;;;;;247.33;19.47;;;18.40;99.90;;;;;;5113273;28;20704;-70
2023/08/06 02:19:43;;;;;;;38.00;16.23;;;18.40;99.90;;;;;;5112618;28;20569;-69
2023/08/06 02:22:30;;;;;;;44.20;16.50;;;18.40;99.90;;;;;;5112998;28;20215;-69
2023/08/06 02:25:17;;;;;;;96.27;16.33;;;18.40;99.90;;;;;;5112612;28;20199;-70
2023/08/06 02:28:06;;;;;;;51.00;16.27;;;18.40;99.90;;;;;;5112316;28;20666;-69
2023/08/06 02:30:53;;;;;;;340.57;20.53;;;18.40;99.90;;;;;;5112831;28;20188;-69
2023/08/06 02:33:41;;;;;;;260.13;18.77;;;18.50;99.90;;;;;;5113513;28;20217;-70
2023/08/06 02:36:29;;;;;;;59.17;14.97;;;18.50;99.90;;;;;;5113773;28;20704;-69
2023/08/06 02:39:16;;;;;;;40.07;15.97;;;18.50;99.90;;;;;;5112896;28;20431;-69
2023/08/06 02:42:04;;;;;;;83.40;16.57;;;18.50;99.90;;;;;;5112442;28;20294;-70
2023/08/06 02:44:54;;;;;;;74.53;16.17;;;18.50;99.90;;;;;;5112629;28;20199;-69
2023/08/06 02:47:42;;;;;;;174.80;16.93;;;18.50;99.90;;;;;;5112597;28;20633;-70
2023/08/06 02:50:29;;;;;;;91.57;17.27;;;18.60;99.90;;;;;;5113235;28;20199;-70
2023/08/06 02:53:16;;;;;;;596.23;23.37;;;18.60;99.90;;;;;;5112621;28;20198;-70
2023/08/06 02:56:03;;;;;;;569.37;22.23;;;18.60;99.90;;;;;;5112908;28;20680;-69
2023/08/06 02:58:51;;;;;;;473.00;21.27;;;18.60;99.90;;;;;;5112435;28;20195;-70
2023/08/06 03:01:39;;;;;;;130.37;18.07;;;18.60;99.90;;;;;;5111919;28;20215;-70
2023/08/06 03:04:27;;;;;;;138.07;19.03;;;18.70;99.90;;;;;;5112268;28;20195;-70
2023/08/06 03:07:14;;;;;;;411.60;20.50;;;18.70;99.90;;;;;;5112183;28;20202;-70
2023/08/06 03:10:02;;;;;;;536.50;22.23;;;18.70;99.90;;;;;;5112032;28;20571;-70
2023/08/06 03:12:49;;;;;;;428.77;21.20;;;18.70;99.90;;;;;;5112322;28;20304;-70
2023/08/06 03:15:36;;;;;;;169.93;19.57;;;18.70;99.90;;;;;;5112155;28;20203;-69
2023/08/06 03:18:25;;;;;;;217.90;17.27;;;18.70;99.90;;;;;;5112007;28;20199;-70
2023/08/06 03:21:13;;;;;;;257.77;17.23;;;18.70;99.90;;;;;;5112036;28;20736;-70
2023/08/06 03:24:00;;;;;;;219.63;15.17;;;18.60;99.90;;;;;;5112222;28;20199;-70
2023/08/06 03:26:47;;;;;;;431.30;20.03;;;18.50;99.90;;;;;;5112161;28;20202;-70
2023/08/06 03:29:35;;;;;;;205.27;15.83;;;18.40;99.90;;;;;;5111102;28;20195;-70
2023/08/06 03:32:22;;;;;;;235.17;17.97;;;18.40;99.90;;;;;;5111840;28;20195;-70
2023/08/06 03:35:11;;;;;;;86.10;14.83;;;18.50;99.90;;;;;;5111503;28;20210;-70
2023/08/06 03:37:58;;;;;;;52.07;13.37;;;18.50;99.90;;;;;;5111161;28;20316;-70
2023/08/06 03:40:45;;;;;;;63.73;13.43;;;18.60;99.90;;;;;;5111884;28;20200;-70
2023/08/06 03:43:32;;;;;;;90.50;13.80;;;18.60;99.90;;;;;;5110965;28;20191;-70
2023/08/06 03:46:20;;;;;;;422.37;18.63;;;18.60;99.90;;;;;;5111035;28;20195;-70
2023/08/06 03:49:07;;;;;;;234.77;15.73;;;18.60;99.90;;;;;;5111637;28;20207;-70
2023/08/06 03:51:56;;;;;;;375.90;17.63;;;18.70;99.90;;;;;;5111432;28;20219;-70
2023/08/06 03:54:43;;;;;;;259.60;15.37;;;18.70;99.90;;;;;;5111066;28;20205;-70
2023/08/06 03:57:30;;;;;;;268.23;14.63;;;18.70;99.90;;;;;;5111925;28;20213;-70
2023/08/06 04:00:18;;;;;;;110.57;12.17;;;18.70;99.90;;;;;;5111094;28;20226;-70
2023/08/06 04:03:05;;;;;;;283.57;14.73;;;18.70;99.90;;;;;;5112005;28;20207;-70
2023/08/06 04:05:52;;;;;;;337.23;16.60;;;18.70;99.90;;;;;;5111144;28;20574;-70
2023/08/06 04:08:41;;;;;;;208.10;13.87;;;18.70;99.90;;;;;;5111837;28;20223;-70
2023/08/06 04:11:28;;;;;;;138.57;15.90;;;18.70;99.90;;;;;;5111625;28;20210;-70
2023/08/06 04:14:16;;;;;;;370.67;17.90;;;18.80;99.90;;;;;;5111127;28;20669;-70
2023/08/06 04:17:03;;;;;;;135.40;12.23;;;18.70;99.90;;;;;;5110809;28;20568;-70
2023/08/06 04:19:51;;;;;;;146.10;11.17;;;18.70;99.90;;;;;;5111108;28;20203;-70
2023/08/06 04:22:39;;;;;;;149.43;12.73;;;18.70;99.90;;;;;;5110510;28;20215;-70
2023/08/06 04:25:27;;;;;;;94.07;12.43;;;18.60;99.90;;;;;;5110791;28;20195;-70
2023/08/06 04:28:15;;;;;;;107.97;12.03;;;18.80;99.90;;;;;;5110975;28;20199;-70
2023/08/06 04:31:02;;;;;;;80.47;12.63;;;18.90;99.90;;;;;;5111933;28;20195;-70
2023/08/06 04:33:49;;;;;;;60.00;12.80;;;18.90;99.90;;;;;;5111982;28;20195;-70
2023/08/06 04:36:38;;;;;;;153.77;13.37;;;19.00;99.90;;;;;;5111008;28;20210;-70
2023/08/06 04:39:26;;;;;;;136.93;11.53;;;19.00;99.90;;;;;;5111068;28;20191;-70
2023/08/06 04:42:14;;;;;;;56.50;10.47;;;19.00;99.90;;;;;;5111548;28;20211;-70
2023/08/06 04:45:02;;;;;;;23.60;10.63;;;19.10;99.90;;;;;;5111534;28;20199;-70
2023/08/06 04:47:49;;;;;;;21.77;10.90;;;19.20;99.90;;;;;;5111661;28;20696;-70
2023/08/06 04:50:37;;;;;;;18.97;10.70;;;19.20;99.90;;;;;;5114236;28;20195;-70
2023/08/06 04:53:24;;;;;;;19.73;11.10;;;19.30;99.90;;;;;;5115175;28;20566;-70
2023/08/06 04:56:11;;;;;;;18.83;10.80;;;19.30;99.90;;;;;;5114767;28;20210;-70
2023/08/06 04:59:00;;;;;;;26.00;11.00;;;19.30;99.90;;;;;;5114128;28;20195;-70
2023/08/06 05:01:47;;;;;;;16.87;9.97;;;19.40;99.90;;;;;;5115055;28;20221;-70
2023/08/06 05:04:34;;;;;;;15.27;9.40;;;19.40;99.90;;;;;;5114973;28;20203;-71
2023/08/06 05:07:22;;;;;;;12.57;8.33;;;19.40;99.90;;;;;;5114577;28;20202;-70
2023/08/06 05:10:09;;;;;;;13.20;8.83;;;19.40;99.90;;;;;;5115039;28;20655;-69
2023/08/06 05:12:56;;;;;;;12.97;8.87;;;19.40;99.90;;;;;;5114465;28;20194;-70
2023/08/06 05:15:46;;;;;;;13.33;8.77;;;19.40;99.90;;;;;;5113863;28;20198;-70
2023/08/06 05:18:34;;;;;;;13.00;8.50;;;19.40;99.90;;;;;;5114003;28;20203;-70
2023/08/06 05:21:21;;;;;;;13.27;8.60;;;19.50;99.90;;;;;;5114037;28;20316;-70
2023/08/06 05:24:09;;;;;;;9.83;6.80;;;19.50;99.90;;;;;;5113548;28;20214;-70
2023/08/06 05:26:56;;;;;;;10.37;7.80;;;19.50;99.90;;;;;;5113719;28;20203;-70
2023/08/06 05:29:43;;;;;;;9.60;7.23;;;19.50;99.90;;;;;;5114226;28;20199;-70
2023/08/06 05:32:32;;;;;;;10.17;7.30;;;19.50;99.90;;;;;;5113542;28;20183;-70
2023/08/06 05:35:19;;;;;;;10.03;7.90;;;19.40;99.90;;;;;;5114157;28;20203;-70
2023/08/06 05:38:07;;;;;;;10.40;8.10;;;19.30;99.90;;;;;;5113258;28;20199;-69
2023/08/06 05:40:55;;;;;;;10.10;7.80;;;19.40;99.90;;;;;;5114146;28;20575;-70
2023/08/06 05:43:42;;;;;;;9.90;7.57;;;19.40;99.90;;;;;;5113836;28;20219;-70
2023/08/06 05:46:29;;;;;;;9.27;7.43;;;19.40;99.90;;;;;;5113426;28;20202;-69
2023/08/06 05:49:18;;;;;;;10.30;7.70;;;19.40;99.90;;;;;;5113736;28;20202;-69
2023/08/06 05:52:08;;;;;;;9.13;7.37;;;19.50;99.90;;;;;;5113681;28;20215;-69
2023/08/06 05:54:55;;;;;;;11.67;7.67;;;19.50;99.90;;;;;;5113276;28;20282;-70
2023/08/06 05:57:43;;;;;;;9.50;7.80;;;19.40;99.90;;;;;;5113561;28;20200;-69
2023/08/06 06:00:30;;;;;;;9.60;7.20;;;19.50;99.90;;;;;;5112347;28;20234;-70
2023/08/06 06:03:17;;;;;;;8.53;6.87;;;19.40;99.90;;;;;;5113566;28;20215;-69
2023/08/06 06:06:06;;;;;;;8.77;6.93;;;19.50;99.90;;;;;;5113267;28;20203;-69
2023/08/06 06:08:53;;;;;;;9.60;7.53;;;19.50;99.90;;;;;;5113508;28;20203;-70
2023/08/06 06:11:41;;;;;;;8.57;7.50;;;19.50;99.90;;;;;;5112698;28;20662;-69
2023/08/06 06:14:28;;;;;;;8.27;7.33;;;19.40;99.90;;;;;;5112749;28;20199;-70
2023/08/06 06:17:15;;;;;;;11.23;7.90;;;19.40;99.90;;;;;;5112822;28;20199;-69
2023/08/06 06:20:04;;;;;;;10.47;8.00;;;19.40;99.90;;;;;;5113637;28;20195;-70
2023/08/06 06:22:52;;;;;;;9.70;6.70;;;19.40;99.90;;;;;;5112574;28;20607;-70
2023/08/06 06:25:43;;;;;;;8.43;6.97;;;19.40;99.90;;;;;;5113306;28;20203;-70
2023/08/06 06:28:30;;;;;;;10.63;7.23;;;19.40;99.90;;;;;;5111969;28;20230;-70
2023/08/06 06:31:18;;;;;;;10.70;7.67;;;19.30;99.90;;;;;;5112335;28;20202;-69
2023/08/06 06:34:05;;;;;;;8.67;7.23;;;19.30;99.90;;;;;;5112369;28;20192;-69
2023/08/06 06:36:52;;;;;;;11.93;8.30;;;19.30;99.90;;;;;;5113456;28;20207;-70
2023/08/06 06:39:41;;;;;;;9.07;6.47;;;19.20;99.90;;;;;;5113019;28;20195;-70
2023/08/06 06:42:28;;;;;;;8.17;5.63;;;18.90;99.90;;;;;;5112393;28;20645;-70
2023/08/06 06:45:16;;;;;;;5.27;4.10;;;18.70;99.90;;;;;;5111941;28;20195;-70
2023/08/06 06:48:03;;;;;;;4.93;3.90;;;18.70;99.90;;;;;;5112527;28;20203;-69
2023/08/06 06:50:50;;;;;;;3.73;3.33;;;18.60;99.90;;;;;;5113096;28;20206;-70
2023/08/06 06:53:37;;;;;;;6.43;4.53;;;18.50;99.90;;;;;;5113151;28;20565;-70
2023/08/06 06:56:26;;;;;;;8.00;4.80;;;18.40;99.90;;;;;;5111900;28;20209;-70
2023/08/06 06:59:13;;;;;;;6.33;5.20;;;18.30;99.90;;;;;;5111496;28;20661;-70
2023/08/06 07:02:01;;;;;;;5.70;4.73;;;18.30;99.90;;;;;;5090696;28;20195;-70
2023/08/06 07:04:48;;;;;;;5.87;4.33;;;18.30;99.90;;;;;;5092035;28;20210;-70
2023/08/06 07:07:36;;;;;;;5.97;4.67;;;18.20;99.90;;;;;;5092176;28;20686;-70
2023/08/06 07:10:24;;;;;;;6.33;4.80;;;18.30;99.90;;;;;;5091118;28;20211;-70
2023/08/06 07:13:12;;;;;;;6.23;4.83;;;18.40;99.90;;;;;;5090821;28;20306;-70
2023/08/06 07:16:00;;;;;;;8.43;4.90;;;18.40;99.90;;;;;;5091093;28;20200;-69
2023/08/06 07:18:47;;;;;;;11.27;5.60;;;18.30;99.90;;;;;;5091489;28;20696;-70
2023/08/06 07:21:34;;;;;;;5.70;2.33;;;18.20;99.90;;;;;;5090849;28;20200;-71
2023/08/06 07:24:21;;;;;;;2.90;1.30;;;18.10;99.90;;;;;;5090215;28;20207;-72
2023/08/06 07:27:09;;;;;;;0.67;0.67;;;18.00;99.90;;;;;;5091023;28;20681;-71
2023/08/06 07:29:58;;;;;;;0.67;0.67;;;17.90;99.90;;;;;;5091076;28;20205;-68
2023/08/06 07:32:45;;;;;;;1.30;0.80;;;17.90;99.90;;;;;;5091095;28;20196;-66
2023/08/06 07:35:32;;;;;;;2.97;0.93;;;17.80;99.90;;;;;;5091106;28;20204;-66
2023/08/06 07:38:20;;;;;;;0.70;0.60;;;17.60;99.90;;;;;;5090747;28;20199;-66
2023/08/06 07:41:07;;;;;;;0.60;0.40;;;17.50;99.90;;;;;;5091112;28;20201;-66
2023/08/06 07:43:54;;;;;;;0.70;0.40;;;17.30;99.90;;;;;;5091807;28;20689;-70
2023/08/06 07:46:43;;;;;;;0.40;0.40;;;17.10;99.90;;;;;;5090727;28;20196;-80
2023/08/06 07:49:30;;;;;;;0.27;0.20;;;16.70;99.90;;;;;;5090585;28;20195;-72
2023/08/06 07:52:18;;;;;;;1.50;0.30;;;16.30;99.90;;;;;;5091692;28;20234;-73
2023/08/06 07:55:06;;;;;;;3.27;0.60;;;16.30;99.90;;;;;;5091750;28;20222;-72
2023/08/06 07:57:53;;;;;;;2.57;0.40;;;16.30;99.90;;;;;;5090781;28;20328;-77
2023/08/06 08:00:42;;;;;;;2.53;0.30;;;16.30;99.90;;;;;;5104196;28;20237;-71
2023/08/06 08:03:31;;;;;;;1.33;0.30;;;16.30;99.90;;;;;;5111545;28;20261;-68
2023/08/06 08:06:18;;;;;;;0.30;0.20;;;16.30;99.90;;;;;;5111480;28;20210;-67
2023/08/06 08:09:05;;;;;;;0.73;0.30;;;16.40;99.90;;;;;;5111516;28;20677;-67
2023/08/06 08:11:53;;;;;;;0.20;0.10;;;16.40;99.90;;;;;;5111279;28;20195;-67
2023/08/06 08:14:40;;;;;;;0.23;0.17;;;16.40;99.90;;;;;;5111427;28;20195;-66
2023/08/06 08:17:27;;;;;;;1.00;0.20;;;16.40;99.90;;;;;;5110606;28;20191;-66
2023/08/06 08:20:17;;;;;;;0.60;0.30;;;16.50;99.90;;;;;;5111114;28;20199;-66
2023/08/06 08:23:04;;;;;;;0.33;0.30;;;16.50;99.90;;;;;;5112656;28;20581;-66
2023/08/06 08:25:51;;;;;;;3.50;0.30;;;16.40;99.90;;;;;;5115511;28;20208;-66
2023/08/06 08:28:39;;;;;;;2.80;0.60;;;16.40;99.90;;;;;;5115167;28;20571;-66
2023/08/06 08:31:26;;;;;;;1.70;0.60;;;16.20;99.90;;;;;;5115215;28;20196;-66
2023/08/06 08:34:13;;;;;;;0.77;0.50;;;16.20;99.90;;;;;;5114948;28;20196;-66
2023/08/06 08:37:02;;;;;;;1.07;0.50;;;16.10;99.90;;;;;;5115786;28;20197;-66
2023/08/06 08:39:49;;;;;;;0.83;0.50;;;16.00;99.90;;;;;;5115854;28;20206;-66
2023/08/06 08:42:37;;;;;;;1.47;0.43;;;16.00;99.90;;;;;;5115183;28;20199;-66
2023/08/06 08:45:24;;;;;;;2.70;0.50;;;16.00;99.90;;;;;;5113158;28;20206;-66
2023/08/06 08:48:11;;;;;;;0.97;0.40;;;15.80;99.90;;;;;;5115216;28;20207;-66
2023/08/06 08:50:59;;;;;;;1.23;0.50;;;15.90;99.90;;;;;;5115311;28;20202;-66
2023/08/06 08:53:47;;;;;;;0.70;0.60;;;15.80;99.90;;;;;;5114907;28;20680;-66
2023/08/06 08:56:34;;;;;;;0.60;0.33;;;15.90;99.90;;;;;;5114158;28;20195;-65
2023/08/06 08:59:22;;;;;;;1.47;0.60;;;15.80;99.90;;;;;;5112649;28;20205;-66
2023/08/06 09:02:09;;;;;;;0.47;0.33;;;15.80;99.90;;;;;;5093239;28;20207;-66
2023/08/06 09:04:59;;;;;;;0.50;0.30;;;15.80;99.90;;;;;;5093997;28;20708;-66
2023/08/06 09:07:49;;;;;;;0.60;0.60;;;15.80;99.90;;;;;;5094723;28;20573;-66
2023/08/06 09:10:38;;;;;;;1.77;0.80;;;15.70;99.90;;;;;;5074009;28;20201;-66
2023/08/06 09:13:26;;;;;;;0.70;0.70;;;15.90;99.90;;;;;;5073204;28;20204;-66
2023/08/06 09:16:13;;;;;;;0.50;0.50;;;15.90;99.90;;;;;;5073155;28;20201;-66
2023/08/06 09:19:07;;;;;;;2.10;0.70;;;15.70;99.90;;;;;;5073283;28;20203;-66
2023/08/06 09:21:56;;;;;;;1.10;0.70;;;15.80;99.90;;;;;;5073575;28;20201;-66
2023/08/06 09:24:43;;;;;;;4.23;0.70;;;15.90;99.90;;;;;;5073809;28;20224;-66
2023/08/06 09:27:32;;;;;;;0.80;0.60;;;16.00;99.90;;;;;;5073035;28;20280;-66
2023/08/06 09:30:30;;;;;;;2.50;0.70;;;16.10;99.90;;;;;;5090650;28;20200;-66
2023/08/06 09:33:19;;;;;;;2.30;0.63;;;15.90;99.90;;;;;;5093048;28;20196;-66
2023/08/06 09:36:10;;;;;;;1.00;0.90;;;15.80;99.90;;;;;;5092037;28;20196;-66
2023/08/06 09:38:58;;;;;;;0.97;0.90;;;15.70;99.90;;;;;;5093334;28;20574;-66
2023/08/06 09:41:46;;;;;;;1.07;0.97;;;15.80;99.90;;;;;;5093580;28;20192;-66
2023/08/06 09:44:35;;;;;;;0.77;0.77;;;15.70;99.90;;;;;;5093263;28;20471;-66
2023/08/06 09:47:23;;;;;;;3.73;0.70;;;15.70;99.90;;;;;;5092564;28;20227;-66
2023/08/06 09:50:16;;;;;;;0.70;0.70;;;15.70;99.90;;;;;;5093299;28;20200;-66
2023/08/06 09:53:04;;;;;;;1.10;1.00;;;15.80;99.90;;;;;;5092941;28;20222;-66
2023/08/06 09:55:51;;;;;;;0.97;0.87;;;15.70;99.90;;;;;;5093041;28;20681;-66
2023/08/06 09:58:39;;;;;;;1.63;0.90;;;15.70;99.90;;;;;;5092563;28;20210;-67
2023/08/06 10:01:27;;;;;;;1.00;1.00;;;15.70;99.90;;;;;;5112322;28;20589;-66
2023/08/06 10:04:16;;;;;;;1.63;0.90;;;15.70;99.90;;;;;;5113958;28;20215;-66
2023/08/06 10:07:03;;;;;;;2.57;1.40;;;15.70;99.90;;;;;;5113566;28;20322;-66
2023/08/06 10:09:50;;;;;;;1.57;1.00;;;15.80;99.90;;;;;;5112900;28;20571;-66
2023/08/06 10:12:40;;;;;;;1.80;1.10;;;15.80;99.90;;;;;;5113966;28;20209;-66
2023/08/06 10:15:28;;;;;;;1.70;1.50;;;15.70;99.90;;;;;;5113245;28;20196;-66
2023/08/06 10:18:20;;;;;;;1.93;1.13;;;15.50;99.90;;;;;;5112575;28;20675;-66
2023/08/06 10:21:09;;;;;;;1.40;1.30;;;15.60;99.90;;;;;;5113140;28;20615;-66
2023/08/06 10:23:56;;;;;;;1.70;1.37;;;15.60;99.90;;;;;;5112508;28;20214;-66
2023/08/06 10:26:43;;;;;;;4.63;1.50;;;15.50;99.90;;;;;;5112656;28;20199;-67
2023/08/06 10:29:37;;;;;;;1.10;1.00;;;15.40;99.90;;;;;;5113116;28;20195;-66
2023/08/06 10:32:47;;;;;;;1.07;1.03;;;15.50;99.90;;;;;;5113118;28;20282;-66
2023/08/06 10:35:40;;;;;;;1.93;1.30;;;15.50;99.90;;;;;;5112970;28;20566;-66
2023/08/06 10:38:31;;;;;;;1.30;1.20;;;15.40;99.90;;;;;;5112920;28;20203;-67
2023/08/06 10:41:24;;;;;;;4.33;1.50;;;15.40;99.90;;;;;;5113275;28;20669;-66
2023/08/06 10:44:12;;;;;;;1.73;1.60;;;15.30;99.90;;;;;;5112327;28;20221;-66
2023/08/06 10:47:08;;;;;;;2.37;1.47;;;15.30;99.90;;;;;;5112855;28;20208;-66
2023/08/06 10:49:55;;;;;;;2.33;1.30;;;15.30;99.90;;;;;;5113070;28;20701;-66
2023/08/06 10:52:44;;;;;;;1.43;1.10;;;15.30;99.90;;;;;;5112636;28;20223;-66
2023/08/06 10:55:32;;;;;;;1.03;1.03;;;15.30;99.90;;;;;;5112809;28;20244;-66
2023/08/06 10:58:19;;;;;;;1.40;1.20;;;15.20;99.90;;;;;;5112618;28;20207;-66
2023/08/06 11:01:07;;;;;;;1.40;1.30;;;15.20;99.90;;;;;;5095721;28;20709;-66
2023/08/06 11:03:54;;;;;;;1.63;1.53;;;15.40;99.90;;;;;;5091245;28;20222;-66
2023/08/06 11:06:42;;;;;;;1.80;1.40;;;15.40;99.90;;;;;;5091411;28;20193;-65
2023/08/06 11:09:30;;;;;;;1.30;1.20;;;15.40;99.90;;;;;;5091287;28;20673;-66
2023/08/06 11:12:19;;;;;;;1.60;1.30;;;15.40;99.90;;;;;;5090661;28;20203;-66
2023/08/06 11:15:08;;;;;;;1.60;1.50;;;15.30;99.90;;;;;;5090506;28;20196;-66
2023/08/06 11:17:55;;;;;;;1.50;1.40;;;15.20;99.90;;;;;;5091284;28;20196;-66
2023/08/06 11:20:42;;;;;;;1.53;1.43;;;15.20;99.90;;;;;;5091310;28;20203;-66
2023/08/06 11:23:30;;;;;;;1.50;1.40;;;15.10;99.90;;;;;;5091531;28;20682;-66
2023/08/06 11:26:21;;;;;;;1.50;1.40;;;15.00;99.90;;;;;;5090882;28;20202;-66
2023/08/06 11:29:08;;;;;;;1.47;1.27;;;15.00;99.90;;;;;;5090436;28;20223;-65
2023/08/06 11:32:04;;;;;;;1.90;1.40;;;14.90;99.90;;;;;;5092105;28;20214;-66
2023/08/06 11:34:51;;;;;;;1.60;1.27;;;15.00;99.90;;;;;;5090961;28;20623;-65
2023/08/06 11:37:39;;;;;;;1.60;1.33;;;14.90;99.90;;;;;;5092205;28;20196;-66
2023/08/06 11:40:26;;;;;;;1.30;1.13;;;14.70;99.90;;;;;;5091775;28;20199;-66
2023/08/06 11:43:15;;;;;;;1.00;1.00;;;14.80;99.90;;;;;;5091508;28;20281;-66
2023/08/06 11:46:02;;;;;;;1.10;1.00;;;14.80;99.90;;;;;;5090682;28;20196;-66
2023/08/06 11:48:53;;;;;;;1.00;1.00;;;14.70;99.90;;;;;;5091560;28;20210;-66
2023/08/06 11:51:40;;;;;;;1.77;0.90;;;14.70;99.90;;;;;;5090653;28;20235;-65
2023/08/06 11:54:34;;;;;;;0.87;0.80;;;14.60;99.90;;;;;;5090276;28;20195;-66
2023/08/06 11:57:21;;;;;;;0.80;0.80;;;14.60;99.90;;;;;;5089653;28;20196;-66
2023/08/06 12:00:11;;;;;;;0.50;0.50;;;14.70;99.90;;;;;;5097331;28;20643;-66
2023/08/06 12:02:58;;;;;;;0.60;0.60;;;14.60;99.90;;;;;;5110698;28;20194;-66
2023/08/06 12:05:46;;;;;;;1.90;0.67;;;14.60;99.90;;;;;;5111021;28;20725;-66
2023/08/06 12:08:34;;;;;;;0.80;0.50;;;14.40;99.90;;;;;;5110596;28;20190;-66
2023/08/06 12:11:22;;;;;;;1.07;0.50;;;14.50;99.90;;;;;;5111346;28;20197;-66
2023/08/06 12:14:09;;;;;;;1.07;0.73;;;14.50;99.90;;;;;;5111571;28;20215;-66
2023/08/06 12:16:58;;;;;;;3.10;0.70;;;14.40;99.90;;;;;;5110935;28;20207;-66
2023/08/06 12:19:46;;;;;;;1.10;0.60;;;14.30;99.90;;;;;;5110890;28;20199;-66
2023/08/06 12:22:35;;;;;;;1.03;0.70;;;14.40;99.90;;;;;;5111193;28;20654;-65
2023/08/06 12:25:23;;;;;;;0.90;0.60;;;14.40;99.90;;;;;;5111117;28;20213;-66
2023/08/06 12:28:10;;;;;;;0.93;0.63;;;14.40;99.90;;;;;;5111408;28;20203;-67
2023/08/06 12:30:57;;;;;;;0.40;0.40;;;14.40;99.90;;;;;;5091125;28;20665;-66
2023/08/06 12:33:46;;;;;;;2.53;0.53;;;14.30;99.90;;;;;;5089607;28;20205;-66
2023/08/06 12:36:33;;;;;;;0.67;0.53;;;14.20;99.90;;;;;;5090966;28;20661;-65
2023/08/06 12:39:21;;;;;;;0.70;0.50;;;14.30;99.90;;;;;;5090825;28;20207;-65
2023/08/06 12:42:08;;;;;;;0.77;0.60;;;14.30;99.90;;;;;;5090769;28;20665;-65
2023/08/06 12:44:55;;;;;;;3.47;0.60;;;14.30;99.90;;;;;;5090772;28;20226;-65
2023/08/06 12:47:43;;;;;;;0.50;0.50;;;14.30;99.90;;;;;;5090660;28;20199;-65
2023/08/06 12:50:32;;;;;;;1.13;0.70;;;14.40;99.90;;;;;;5090098;28;20208;-66
2023/08/06 12:53:20;;;;;;;1.00;0.60;;;14.50;99.90;;;;;;5090874;28;20204;-65
2023/08/06 12:56:08;;;;;;;1.03;0.60;;;14.60;99.90;;;;;;5091107;28;20193;-66
2023/08/06 12:58:55;;;;;;;0.60;0.60;;;14.70;99.90;;;;;;5090605;28;20203;-65
2023/08/06 13:01:42;;;;;;;1.03;0.60;;;14.90;99.90;;;;;;5090148;28;20224;-65
2023/08/06 13:04:30;;;;;;;0.50;0.50;;;14.90;99.90;;;;;;5089920;28;20455;-65
2023/08/06 13:07:19;;;;;;;1.00;0.53;;;14.80;99.90;;;;;;5090563;28;20203;-65
2023/08/06 13:10:07;;;;;;;0.77;0.70;;;14.80;99.90;;;;;;5108281;28;20578;-66
2023/08/06 13:12:54;;;;;;;0.50;0.50;;;14.90;99.90;;;;;;5114659;28;20208;-66
2023/08/06 13:15:41;;;;;;;1.10;0.60;;;15.00;99.90;;;;;;5114447;28;20650;-66
2023/08/06 13:18:29;;;;;;;1.00;0.67;;;15.10;99.90;;;;;;5114282;28;20195;-66
2023/08/06 13:21:16;;;;;;;0.80;0.80;;;15.20;99.90;;;;;;5114352;28;20295;-66
2023/08/06 13:24:05;;;;;;;1.40;0.90;;;15.30;99.90;;;;;;5113875;28;20214;-66
2023/08/06 13:26:52;;;;;;;1.10;1.00;;;15.20;99.90;;;;;;5114531;28;20223;-65
2023/08/06 13:29:40;;;;;;;2.93;1.00;;;15.30;99.90;;;;;;5113382;28;20202;-66
2023/08/06 13:32:27;;;;;;;1.20;0.80;;;15.20;99.90;;;;;;5114230;28;20596;-65
2023/08/06 13:35:14;;;;;;;2.77;1.00;;;15.20;99.90;;;;;;5113977;28;20668;-65
2023/08/06 13:38:02;;;;;;;1.80;0.90;;;15.10;99.90;;;;;;5114153;28;20571;-65
2023/08/06 13:40:51;;;;;;;1.17;1.07;;;15.10;99.90;;;;;;5113315;28;20198;-65
2023/08/06 13:43:39;;;;;;;1.20;1.10;;;15.10;99.90;;;;;;5113240;28;20206;-65
2023/08/06 13:46:26;;;;;;;1.27;1.00;;;15.10;99.90;;;;;;5113570;28;20197;-65
2023/08/06 13:49:14;;;;;;;1.13;0.83;;;15.00;99.90;;;;;;5114431;28;20199;-66
2023/08/06 13:52:01;;;;;;;1.20;1.00;;;14.90;99.90;;;;;;5114193;28;20211;-65
2023/08/06 13:54:48;;;;;;;1.20;0.90;;;15.00;99.90;;;;;;5113328;28;20198;-65
2023/08/06 13:57:37;;;;;;;1.47;0.80;;;14.90;99.90;;;;;;5114386;28;20224;-66
2023/08/06 14:00:24;;;;;;;0.80;0.80;;;14.80;99.90;;;;;;5114099;28;20222;-66
2023/08/06 14:03:11;;;;;;;1.87;0.90;;;14.80;99.90;;;;;;5114242;28;20202;-66
2023/08/06 14:05:58;;;;;;;0.90;0.90;;;14.80;99.90;;;;;;5113591;28;20222;-65
2023/08/06 14:08:46;;;;;;;0.83;0.83;;;14.70;99.90;;;;;;5112845;28;20195;-65
2023/08/06 14:11:33;;;;;;;1.17;1.00;;;14.70;99.90;;;;;;5113501;28;20198;-65
2023/08/06 14:14:25;;;;;;;0.90;0.90;;;14.70;99.90;;;;;;5112983;28;20203;-65
2023/08/06 14:17:13;;;;;;;0.80;0.80;;;14.70;99.90;;;;;;5112722;28;20194;-65
2023/08/06 14:20:00;;;;;;;1.20;1.00;;;14.80;99.90;;;;;;5113254;28;20198;-65
2023/08/06 14:22:47;;;;;;;1.03;0.80;;;14.80;99.90;;;;;;5112836;28;20195;-65
2023/08/06 14:25:35;;;;;;;1.67;1.00;;;15.00;99.90;;;;;;5113066;28;20733;-65